Time;durP1;ratioP1;P1;durP2;ratioP2;P2;SDS_P1;SDS_P2;PMS_P1;PMS_P2;Temp;Humidity;BMP_temperature;BMP_pressure;BME280_temperature;BME280_humidity;BME280_pressure;Samples;Min_cycle;Max_cycle;Signal;HPM_P1;HPM_P2
2024/02/04 00:02:17;;;;;;;0.40;0.23;;;11.70;99.90;;;;;;5042000;28;20206;-60
2024/02/04 00:04:43;;;;;;;0.40;0.20;;;11.70;99.90;;;;;;5041699;28;20233;-60
2024/02/04 00:07:10;;;;;;;0.50;0.40;;;11.70;99.90;;;;;;5044908;28;20252;-59
2024/02/04 00:09:37;;;;;;;0.30;0.30;;;11.80;99.90;;;;;;5045078;28;20221;-59
2024/02/04 00:12:06;;;;;;;0.43;0.30;;;11.80;99.90;;;;;;5042152;28;20218;-60
2024/02/04 00:14:32;;;;;;;1.37;0.50;;;11.80;99.90;;;;;;5041557;28;20226;-59
2024/02/04 00:17:00;;;;;;;0.70;0.50;;;11.70;99.90;;;;;;5043808;28;20237;-60
2024/02/04 00:19:27;;;;;;;0.97;0.43;;;11.70;99.90;;;;;;5044851;28;20678;-60
2024/02/04 00:21:54;;;;;;;1.00;0.50;;;11.60;99.90;;;;;;5043214;28;20763;-61
2024/02/04 00:24:20;;;;;;;1.17;0.70;;;11.70;99.90;;;;;;5041257;28;20222;-60
2024/02/04 00:26:47;;;;;;;1.17;0.80;;;11.70;99.90;;;;;;5041961;28;20586;-60
2024/02/04 00:29:14;;;;;;;0.73;0.67;;;11.70;99.90;;;;;;5044624;28;20244;-60
2024/02/04 00:31:41;;;;;;;1.03;0.60;;;11.80;99.90;;;;;;5044808;28;20212;-60
2024/02/04 00:34:08;;;;;;;0.50;0.50;;;11.80;99.90;;;;;;5041359;28;20218;-58
2024/02/04 00:36:35;;;;;;;1.87;0.70;;;11.80;99.90;;;;;;5041135;28;20199;-59
2024/02/04 00:39:03;;;;;;;1.47;0.90;;;11.90;99.90;;;;;;5043191;28;20632;-60
2024/02/04 00:41:29;;;;;;;0.50;0.50;;;11.90;99.90;;;;;;5044685;28;20201;-58
2024/02/04 00:43:56;;;;;;;0.90;0.60;;;11.90;99.90;;;;;;5042532;28;20299;-59
2024/02/04 00:46:23;;;;;;;0.73;0.53;;;11.90;99.90;;;;;;5041316;28;20206;-60
2024/02/04 00:48:49;;;;;;;0.50;0.50;;;11.80;99.90;;;;;;5041311;28;20222;-58
2024/02/04 00:51:19;;;;;;;1.83;0.60;;;11.90;99.90;;;;;;5044290;28;20209;-60
2024/02/04 00:53:46;;;;;;;1.83;0.50;;;11.90;99.90;;;;;;5044095;28;20847;-59
2024/02/04 00:56:13;;;;;;;0.60;0.47;;;11.80;99.90;;;;;;5041138;28;20205;-59
2024/02/04 00:58:39;;;;;;;0.40;0.40;;;11.80;99.90;;;;;;5040653;28;20206;-59
2024/02/04 01:01:06;;;;;;;0.57;0.50;;;11.80;99.90;;;;;;5043743;28;20198;-60
2024/02/04 01:03:33;;;;;;;1.60;0.37;;;11.90;99.90;;;;;;5044249;28;20205;-58
2024/02/04 01:06:00;;;;;;;0.93;0.50;;;11.90;99.90;;;;;;5042209;28;20205;-58
2024/02/04 01:08:28;;;;;;;0.37;0.37;;;11.90;99.90;;;;;;5040420;28;20742;-59
2024/02/04 01:10:54;;;;;;;0.50;0.50;;;11.90;99.90;;;;;;5041781;28;20210;-60
2024/02/04 01:13:21;;;;;;;0.77;0.60;;;11.90;99.90;;;;;;5044195;28;20208;-58
2024/02/04 01:15:48;;;;;;;0.30;0.30;;;11.90;99.90;;;;;;5043575;28;20229;-58
2024/02/04 01:18:14;;;;;;;0.70;0.50;;;11.90;99.90;;;;;;5040255;28;20263;-58
2024/02/04 01:20:41;;;;;;;0.50;0.47;;;12.00;99.90;;;;;;5040875;28;20205;-59
2024/02/04 01:23:08;;;;;;;0.43;0.37;;;12.00;99.90;;;;;;5043730;28;20205;-58
2024/02/04 01:25:36;;;;;;;0.77;0.37;;;11.90;99.90;;;;;;5043773;28;20232;-58
2024/02/04 01:28:03;;;;;;;0.30;0.30;;;12.00;99.90;;;;;;5041221;28;20216;-58
2024/02/04 01:30:31;;;;;;;0.40;0.30;;;12.00;99.90;;;;;;5040442;28;20707;-58
2024/02/04 01:32:57;;;;;;;0.60;0.40;;;12.00;99.90;;;;;;5041961;28;20206;-59
2024/02/04 01:35:24;;;;;;;0.77;0.57;;;12.00;99.90;;;;;;5043969;28;20639;-60
2024/02/04 01:37:51;;;;;;;0.43;0.30;;;12.00;99.90;;;;;;5042854;28;20205;-61
2024/02/04 01:40:17;;;;;;;0.60;0.40;;;12.00;99.90;;;;;;5040335;28;20198;-60
2024/02/04 01:42:45;;;;;;;1.20;0.33;;;12.00;99.90;;;;;;5040145;28;20214;-59
2024/02/04 01:45:11;;;;;;;0.23;0.23;;;11.90;99.90;;;;;;5031880;28;20229;-59
2024/02/04 01:47:38;;;;;;;0.30;0.30;;;11.90;99.90;;;;;;5039908;28;20198;-60
2024/02/04 01:50:06;;;;;;;0.40;0.20;;;12.00;99.90;;;;;;5042400;28;20627;-60
2024/02/04 01:52:34;;;;;;;0.47;0.47;;;12.00;99.90;;;;;;5043282;28;20289;-60
2024/02/04 01:55:03;;;;;;;0.63;0.30;;;12.00;99.90;;;;;;5040685;28;20820;-60
2024/02/04 01:57:29;;;;;;;0.53;0.30;;;12.00;99.90;;;;;;5039681;28;20260;-61
2024/02/04 01:59:58;;;;;;;1.23;0.40;;;12.00;99.90;;;;;;5040990;28;20590;-59
2024/02/04 02:02:25;;;;;;;0.50;0.33;;;12.00;99.90;;;;;;5043358;28;20247;-60
2024/02/04 02:04:52;;;;;;;0.43;0.37;;;12.00;99.90;;;;;;5042396;28;20279;-60
2024/02/04 02:07:21;;;;;;;1.03;0.50;;;11.90;99.90;;;;;;5039670;28;20202;-59
2024/02/04 02:09:47;;;;;;;0.30;0.30;;;11.90;99.90;;;;;;5039555;28;20587;-61
2024/02/04 02:12:19;;;;;;;0.60;0.50;;;11.90;99.90;;;;;;5043251;28;20570;-61
2024/02/04 02:14:50;;;;;;;0.57;0.53;;;11.90;99.90;;;;;;5043352;28;20226;-59
2024/02/04 02:17:24;;;;;;;0.30;0.30;;;11.90;99.90;;;;;;5032001;28;20668;-60
2024/02/04 02:19:55;;;;;;;0.20;0.20;;;11.90;99.90;;;;;;5041307;28;20209;-59
2024/02/04 02:22:40;;;;;;;0.37;0.30;;;11.90;99.90;;;;;;5043397;28;20210;-59
2024/02/04 02:25:08;;;;;;;1.23;0.20;;;11.80;99.90;;;;;;5040546;28;20233;-59
2024/02/04 02:27:35;;;;;;;1.07;0.50;;;11.70;99.90;;;;;;5039667;28;20209;-59
2024/02/04 02:30:02;;;;;;;0.53;0.43;;;11.70;99.90;;;;;;5041640;28;20233;-60
2024/02/04 02:32:28;;;;;;;0.33;0.33;;;11.70;99.90;;;;;;5043345;28;20229;-59
2024/02/04 02:34:55;;;;;;;0.53;0.20;;;11.70;99.90;;;;;;5041874;28;20230;-58
2024/02/04 02:37:29;;;;;;;1.67;0.57;;;11.70;99.90;;;;;;5039252;28;20257;-61
2024/02/04 02:40:02;;;;;;;0.20;0.20;;;11.70;99.90;;;;;;5040806;28;20209;-57
2024/02/04 02:42:32;;;;;;;0.33;0.23;;;11.80;99.90;;;;;;5043300;28;20554;-59
2024/02/04 02:44:58;;;;;;;0.40;0.30;;;11.70;99.90;;;;;;5041187;28;20715;-59
2024/02/04 02:47:27;;;;;;;0.40;0.27;;;11.60;99.90;;;;;;5039573;28;20207;-59
2024/02/04 02:49:55;;;;;;;0.40;0.40;;;11.60;99.90;;;;;;5040266;28;20230;-59
2024/02/04 02:52:22;;;;;;;0.33;0.23;;;11.60;99.90;;;;;;5043312;28;20294;-58
2024/02/04 02:54:48;;;;;;;0.47;0.40;;;11.70;99.90;;;;;;5042932;28;20302;-59
2024/02/04 02:57:15;;;;;;;0.50;0.30;;;11.70;99.90;;;;;;5039576;28;20206;-59
2024/02/04 02:59:43;;;;;;;0.50;0.33;;;11.60;99.90;;;;;;5039719;28;20206;-59
2024/02/04 03:02:11;;;;;;;0.60;0.43;;;11.60;99.90;;;;;;5042411;28;20256;-60
2024/02/04 03:04:37;;;;;;;0.77;0.30;;;11.60;99.90;;;;;;5042825;28;20320;-60
2024/02/04 03:07:05;;;;;;;0.50;0.30;;;11.60;99.90;;;;;;5041869;28;20251;-60
2024/02/04 03:09:31;;;;;;;1.00;0.40;;;11.60;99.90;;;;;;5042789;28;20328;-59
2024/02/04 03:11:58;;;;;;;0.30;0.20;;;11.60;99.90;;;;;;5044182;28;20608;-59
2024/02/04 03:14:24;;;;;;;0.30;0.30;;;11.50;99.90;;;;;;5046782;28;20760;-59
2024/02/04 03:16:52;;;;;;;0.30;0.30;;;11.50;99.90;;;;;;5045826;28;20213;-59
2024/02/04 03:19:18;;;;;;;0.43;0.40;;;11.50;99.90;;;;;;5042627;28;20207;-59
2024/02/04 03:21:45;;;;;;;0.30;0.30;;;11.50;99.90;;;;;;5042856;28;20206;-61
2024/02/04 03:24:12;;;;;;;0.40;0.20;;;11.40;99.90;;;;;;5046345;28;20237;-60
2024/02/04 03:26:38;;;;;;;0.43;0.30;;;11.50;99.90;;;;;;5046296;28;20595;-59
2024/02/04 03:29:05;;;;;;;0.30;0.30;;;11.40;99.90;;;;;;5043528;28;20229;-61
2024/02/04 03:31:32;;;;;;;0.30;0.30;;;11.40;99.90;;;;;;5042406;28;20826;-59
2024/02/04 03:34:00;;;;;;;0.70;0.30;;;11.30;99.90;;;;;;5043692;28;20229;-59
2024/02/04 03:36:27;;;;;;;0.30;0.30;;;11.30;99.90;;;;;;5045950;28;20236;-62
2024/02/04 03:38:54;;;;;;;0.53;0.50;;;11.30;99.90;;;;;;5045064;28;20209;-58
2024/02/04 03:41:21;;;;;;;1.47;0.40;;;11.30;99.90;;;;;;5042471;28;20198;-58
2024/02/04 03:43:48;;;;;;;0.40;0.40;;;11.30;99.90;;;;;;5042563;28;20248;-59
2024/02/04 03:46:15;;;;;;;0.60;0.50;;;11.20;99.90;;;;;;5088860;22;20225;-58
2024/02/04 03:48:42;;;;;;;0.40;0.37;;;11.20;99.90;;;;;;5073821;28;20296;-59
2024/02/04 03:51:15;;;;;;;0.20;0.20;;;11.20;99.90;;;;;;5073638;28;20709;-59
2024/02/04 03:53:42;;;;;;;0.40;0.30;;;11.20;99.90;;;;;;5074039;28;20216;-59
2024/02/04 03:56:09;;;;;;;0.50;0.37;;;11.20;99.90;;;;;;5065799;28;20234;-61
2024/02/04 03:58:35;;;;;;;0.47;0.40;;;11.20;99.90;;;;;;5065308;28;20211;-59
2024/02/04 04:01:02;;;;;;;0.80;0.40;;;11.20;99.90;;;;;;5063901;28;20258;-59
2024/02/04 04:03:29;;;;;;;0.30;0.30;;;11.20;99.90;;;;;;5061885;28;20201;-59
2024/02/04 04:05:55;;;;;;;0.30;0.30;;;11.20;99.90;;;;;;5062354;28;20714;-59
2024/02/04 04:08:23;;;;;;;0.37;0.37;;;11.20;99.90;;;;;;5065017;28;20216;-60
2024/02/04 04:10:50;;;;;;;0.47;0.40;;;11.20;99.90;;;;;;5065150;28;20225;-59
2024/02/04 04:13:17;;;;;;;0.40;0.40;;;11.20;99.90;;;;;;5061559;28;20201;-59
2024/02/04 04:15:44;;;;;;;0.77;0.60;;;11.20;99.90;;;;;;5061733;28;20225;-59
2024/02/04 04:18:11;;;;;;;1.17;0.50;;;11.10;99.90;;;;;;5063779;28;20274;-59
2024/02/04 04:20:38;;;;;;;0.60;0.40;;;11.10;99.90;;;;;;5065031;28;20204;-59
2024/02/04 04:23:05;;;;;;;0.63;0.53;;;11.00;99.90;;;;;;5062842;28;20292;-59
2024/02/04 04:25:33;;;;;;;0.30;0.30;;;11.00;99.90;;;;;;5061514;28;20287;-59
2024/02/04 04:27:59;;;;;;;0.40;0.40;;;11.00;99.90;;;;;;5062698;28;20308;-58
2024/02/04 04:30:26;;;;;;;0.87;0.30;;;11.00;99.90;;;;;;5064953;28;20221;-60
2024/02/04 04:32:53;;;;;;;0.57;0.40;;;11.00;99.90;;;;;;5064602;28;20213;-59
2024/02/04 04:35:19;;;;;;;1.33;0.70;;;11.00;99.90;;;;;;5061177;28;20217;-59
2024/02/04 04:37:46;;;;;;;0.50;0.50;;;10.90;99.90;;;;;;5061133;28;20257;-59
2024/02/04 04:40:13;;;;;;;0.47;0.40;;;10.80;99.90;;;;;;5063978;28;20604;-59
2024/02/04 04:42:41;;;;;;;0.37;0.30;;;10.80;99.90;;;;;;5064402;28;20295;-59
2024/02/04 04:45:08;;;;;;;0.30;0.30;;;10.90;99.90;;;;;;5062068;28;20232;-59
2024/02/04 04:47:35;;;;;;;0.87;0.50;;;10.90;99.90;;;;;;5061223;28;20248;-59
2024/02/04 04:50:02;;;;;;;1.17;0.50;;;10.90;99.90;;;;;;5062410;28;20773;-59
2024/02/04 04:52:29;;;;;;;0.30;0.30;;;10.90;99.90;;;;;;5064222;28;20739;-60
2024/02/04 04:54:56;;;;;;;0.40;0.40;;;10.90;99.90;;;;;;5063583;28;20255;-59
2024/02/04 04:57:22;;;;;;;1.80;0.40;;;10.80;99.90;;;;;;5060445;28;20273;-59
2024/02/04 04:59:50;;;;;;;0.50;0.40;;;10.80;99.90;;;;;;5060578;28;20675;-59
2024/02/04 05:02:17;;;;;;;0.50;0.50;;;10.90;99.90;;;;;;5052602;28;20251;-59
2024/02/04 05:04:45;;;;;;;0.60;0.43;;;10.90;99.90;;;;;;5060719;28;20654;-59
2024/02/04 05:07:11;;;;;;;0.40;0.40;;;11.00;99.90;;;;;;5062987;28;20206;-59
2024/02/04 05:09:38;;;;;;;0.53;0.43;;;10.90;99.90;;;;;;5064008;28;20694;-59
2024/02/04 05:12:05;;;;;;;0.43;0.33;;;10.90;99.90;;;;;;5062263;28;20270;-59
2024/02/04 05:14:32;;;;;;;0.40;0.40;;;10.90;99.90;;;;;;5060587;28;20232;-59
2024/02/04 05:17:00;;;;;;;0.33;0.33;;;10.90;99.90;;;;;;5061188;28;20621;-59
2024/02/04 05:19:27;;;;;;;0.30;0.30;;;10.90;99.90;;;;;;5063633;28;20200;-59
2024/02/04 05:21:54;;;;;;;0.73;0.40;;;10.80;99.90;;;;;;5063570;28;20211;-59
2024/02/04 05:24:20;;;;;;;0.60;0.60;;;10.80;99.90;;;;;;5060111;28;20206;-61
2024/02/04 05:26:47;;;;;;;1.83;0.50;;;10.90;99.90;;;;;;5060525;28;20202;-61
2024/02/04 05:29:14;;;;;;;0.67;0.60;;;11.00;99.90;;;;;;5062413;28;20209;-60
2024/02/04 05:31:43;;;;;;;0.60;0.50;;;11.10;99.90;;;;;;5063599;28;20221;-60
2024/02/04 05:34:12;;;;;;;0.87;0.60;;;11.00;99.90;;;;;;5061094;28;20208;-59
2024/02/04 05:36:38;;;;;;;0.77;0.63;;;11.00;99.90;;;;;;5060220;28;20205;-60
2024/02/04 05:39:12;;;;;;;0.43;0.40;;;10.90;99.90;;;;;;5061979;28;20209;-59
2024/02/04 05:41:39;;;;;;;0.40;0.30;;;10.90;99.90;;;;;;5063474;28;20557;-60
2024/02/04 05:44:05;;;;;;;0.40;0.40;;;10.90;99.90;;;;;;5061883;28;20212;-60
2024/02/04 05:46:32;;;;;;;0.30;0.30;;;10.70;99.90;;;;;;5059931;28;20293;-60
2024/02/04 05:48:59;;;;;;;1.40;0.40;;;10.70;99.90;;;;;;5060475;28;20209;-60
2024/02/04 05:51:27;;;;;;;0.40;0.40;;;10.70;99.90;;;;;;5063522;28;20221;-61
2024/02/04 05:53:54;;;;;;;0.80;0.40;;;10.70;99.90;;;;;;5063164;28;20677;-61
2024/02/04 05:56:22;;;;;;;0.97;0.60;;;10.60;99.90;;;;;;5059955;28;20241;-61
2024/02/04 05:58:49;;;;;;;1.00;0.40;;;10.60;99.90;;;;;;5059781;28;20209;-61
2024/02/04 06:01:17;;;;;;;0.60;0.50;;;10.60;99.90;;;;;;5062912;28;20204;-61
2024/02/04 06:03:43;;;;;;;0.53;0.43;;;10.60;99.90;;;;;;5063294;28;20301;-60
2024/02/04 06:06:10;;;;;;;0.53;0.50;;;10.70;99.90;;;;;;5061000;28;20316;-59
2024/02/04 06:08:38;;;;;;;2.27;1.50;;;10.60;99.90;;;;;;5059638;28;20205;-60
2024/02/04 06:11:05;;;;;;;1.77;1.10;;;10.60;99.90;;;;;;5061494;28;20233;-59
2024/02/04 06:13:31;;;;;;;0.70;0.60;;;10.70;99.90;;;;;;5063396;28;20591;-58
2024/02/04 06:15:58;;;;;;;0.80;0.60;;;10.70;99.90;;;;;;5062374;28;20722;-60
2024/02/04 06:18:25;;;;;;;0.97;0.80;;;10.70;99.90;;;;;;5059434;28;20255;-59
2024/02/04 06:20:51;;;;;;;1.00;0.67;;;10.70;99.90;;;;;;5060020;28;20198;-60
2024/02/04 06:23:19;;;;;;;0.57;0.50;;;10.80;99.90;;;;;;5063189;28;20204;-60
2024/02/04 06:25:47;;;;;;;1.23;0.80;;;10.90;99.90;;;;;;5063247;28;20228;-60
2024/02/04 06:28:14;;;;;;;1.00;0.60;;;10.90;99.90;;;;;;5060576;28;20586;-60
2024/02/04 06:30:41;;;;;;;1.07;0.70;;;10.90;99.90;;;;;;5059523;28;20222;-61
2024/02/04 06:33:07;;;;;;;0.67;0.67;;;10.80;99.90;;;;;;5061636;28;20213;-62
2024/02/04 06:35:34;;;;;;;0.80;0.67;;;10.80;99.90;;;;;;5062961;28;20228;-59
2024/02/04 06:38:01;;;;;;;0.63;0.50;;;10.80;99.90;;;;;;5061984;28;20595;-59
2024/02/04 06:40:27;;;;;;;1.30;0.50;;;10.70;99.90;;;;;;5060114;28;20206;-61
2024/02/04 06:42:55;;;;;;;1.00;0.70;;;10.70;99.90;;;;;;5063464;28;20209;-60
2024/02/04 06:45:22;;;;;;;1.03;0.73;;;10.60;99.90;;;;;;5055419;28;20608;-60
2024/02/04 06:47:48;;;;;;;2.53;1.90;;;10.50;99.90;;;;;;5063232;28;20214;-61
2024/02/04 06:50:15;;;;;;;1.27;0.90;;;10.50;99.90;;;;;;5066216;28;20213;-60
2024/02/04 06:52:42;;;;;;;1.70;0.70;;;10.50;99.90;;;;;;5066950;28;20254;-60
2024/02/04 06:55:09;;;;;;;3.77;2.53;;;10.50;99.90;;;;;;5064462;28;20779;-61
2024/02/04 06:57:36;;;;;;;1.60;0.90;;;10.60;99.90;;;;;;5062808;28;20255;-60
2024/02/04 07:00:05;;;;;;;1.67;1.00;;;10.60;99.90;;;;;;5063955;28;20224;-60
2024/02/04 07:02:32;;;;;;;0.90;0.60;;;10.70;99.90;;;;;;5066617;28;20204;-60
2024/02/04 07:04:59;;;;;;;1.40;1.00;;;10.80;99.90;;;;;;5065884;28;20235;-60
2024/02/04 07:07:25;;;;;;;1.20;0.90;;;10.90;99.90;;;;;;5062703;28;20212;-59
2024/02/04 07:09:52;;;;;;;1.17;0.70;;;10.90;99.90;;;;;;5062890;28;20279;-60
2024/02/04 07:12:19;;;;;;;0.97;0.73;;;10.90;99.90;;;;;;5065745;28;20221;-60
2024/02/04 07:14:45;;;;;;;1.10;0.80;;;10.90;99.90;;;;;;5066296;28;20229;-60
2024/02/04 07:17:13;;;;;;;1.73;0.93;;;10.90;99.90;;;;;;5063415;28;20694;-60
2024/02/04 07:19:40;;;;;;;2.47;1.80;;;10.80;99.90;;;;;;5062824;28;20213;-59
2024/02/04 07:22:07;;;;;;;1.53;1.43;;;10.80;99.90;;;;;;5064219;28;20606;-60
2024/02/04 07:24:35;;;;;;;2.40;2.00;;;10.80;99.90;;;;;;5065996;28;20216;-59
2024/02/04 07:27:01;;;;;;;0.63;0.60;;;10.80;99.90;;;;;;5065002;28;20201;-59
2024/02/04 07:29:28;;;;;;;1.33;1.00;;;10.70;99.90;;;;;;5062248;28;20285;-60
2024/02/04 07:31:55;;;;;;;1.10;1.00;;;10.70;99.90;;;;;;5062426;28;20267;-60
2024/02/04 07:34:23;;;;;;;0.90;0.70;;;10.70;99.90;;;;;;5062457;28;20205;-60
2024/02/04 07:36:52;;;;;;;1.80;1.20;;;10.80;99.90;;;;;;5062340;28;20419;-61
2024/02/04 07:39:19;;;;;;;1.20;0.77;;;10.80;99.90;;;;;;5065063;28;20576;-60
2024/02/04 07:41:45;;;;;;;1.40;1.00;;;10.80;99.90;;;;;;5065698;28;20200;-60
2024/02/04 07:44:12;;;;;;;1.50;1.20;;;10.80;99.90;;;;;;5063390;28;20201;-60
2024/02/04 07:46:39;;;;;;;2.13;1.40;;;10.90;99.90;;;;;;5062462;28;20229;-60
2024/02/04 07:49:05;;;;;;;1.67;1.27;;;11.00;99.90;;;;;;5063052;28;20205;-61
2024/02/04 07:51:35;;;;;;;2.13;1.53;;;11.10;99.90;;;;;;5065360;28;20216;-60
2024/02/04 07:54:02;;;;;;;1.00;0.80;;;11.20;99.90;;;;;;5063702;28;20479;-60
2024/02/04 07:56:28;;;;;;;1.30;0.97;;;11.20;99.90;;;;;;5062039;28;20263;-60
2024/02/04 07:58:55;;;;;;;3.50;1.67;;;11.20;99.90;;;;;;5061721;28;20221;-60
2024/02/04 08:01:23;;;;;;;0.97;0.90;;;11.20;99.90;;;;;;5053651;28;20206;-60
2024/02/04 08:03:50;;;;;;;1.37;0.63;;;11.20;99.90;;;;;;5061767;28;20331;-59
2024/02/04 08:06:17;;;;;;;2.53;1.00;;;11.20;99.90;;;;;;5064193;28;20225;-59
2024/02/04 08:08:47;;;;;;;1.30;1.00;;;11.30;99.90;;;;;;5064671;28;20209;-59
2024/02/04 08:11:17;;;;;;;1.07;0.90;;;11.40;99.90;;;;;;5062492;28;20732;-60
2024/02/04 08:13:44;;;;;;;3.43;1.33;;;11.40;99.90;;;;;;5061488;28;20300;-60
2024/02/04 08:16:11;;;;;;;1.10;0.93;;;11.50;99.90;;;;;;5063176;28;20794;-60
2024/02/04 08:18:38;;;;;;;1.53;0.93;;;11.60;99.90;;;;;;5064879;28;20205;-61
2024/02/04 08:21:05;;;;;;;1.70;0.87;;;11.50;99.90;;;;;;5063693;28;20205;-61
2024/02/04 08:23:33;;;;;;;1.77;0.80;;;11.60;99.90;;;;;;5061283;28;20741;-61
2024/02/04 08:26:01;;;;;;;0.70;0.60;;;11.70;99.90;;;;;;5061542;28;20226;-61
2024/02/04 08:28:28;;;;;;;0.87;0.70;;;11.80;99.90;;;;;;5068670;28;20694;-61
2024/02/04 08:30:54;;;;;;;1.87;1.10;;;12.00;99.90;;;;;;5061225;28;20201;-61
2024/02/04 08:33:21;;;;;;;2.30;1.50;;;12.10;99.90;;;;;;5064326;28;20197;-60
2024/02/04 08:35:48;;;;;;;2.30;1.30;;;12.10;99.90;;;;;;5064791;28;20252;-60
2024/02/04 08:38:15;;;;;;;1.93;1.20;;;12.10;99.90;;;;;;5062176;28;20216;-61
2024/02/04 08:40:42;;;;;;;0.60;0.57;;;12.10;99.90;;;;;;5061634;28;20208;-60
2024/02/04 08:43:10;;;;;;;1.87;0.80;;;12.10;99.90;;;;;;5062617;28;20214;-61
2024/02/04 08:45:36;;;;;;;4.83;3.70;;;12.10;99.90;;;;;;5064116;28;20294;-61
2024/02/04 08:48:03;;;;;;;2.80;1.70;;;12.20;99.90;;;;;;5063263;28;20201;-61
2024/02/04 08:50:30;;;;;;;4.57;2.67;;;12.40;99.90;;;;;;5061281;28;20229;-60
2024/02/04 08:52:57;;;;;;;0.80;0.63;;;12.60;99.90;;;;;;5060996;28;20225;-60
2024/02/04 08:55:24;;;;;;;1.17;0.80;;;12.70;99.90;;;;;;5052526;28;20248;-61
2024/02/04 08:57:50;;;;;;;4.67;3.47;;;12.80;99.90;;;;;;5060649;28;20201;-60
2024/02/04 09:00:20;;;;;;;3.00;2.70;;;12.80;99.90;;;;;;5063010;28;20214;-61
2024/02/04 09:02:47;;;;;;;2.53;1.10;;;12.90;99.90;;;;;;5063990;28;20200;-59
2024/02/04 09:05:15;;;;;;;0.80;0.70;;;12.90;99.90;;;;;;5061893;28;20281;-59
2024/02/04 09:07:41;;;;;;;0.70;0.40;;;13.00;99.90;;;;;;5060574;28;20205;-60
2024/02/04 09:10:08;;;;;;;0.70;0.50;;;13.10;99.90;;;;;;5061803;28;20239;-60
2024/02/04 09:12:35;;;;;;;0.60;0.60;;;13.10;99.90;;;;;;5063872;28;20217;-60
2024/02/04 09:15:03;;;;;;;1.20;1.10;;;13.10;99.90;;;;;;5063208;28;20236;-60
2024/02/04 09:17:33;;;;;;;1.37;1.20;;;13.10;99.90;;;;;;5060099;28;20229;-60
2024/02/04 09:20:00;;;;;;;1.30;0.63;;;13.10;99.90;;;;;;5060485;28;20659;-61
2024/02/04 09:22:26;;;;;;;0.50;0.50;;;13.00;99.90;;;;;;5063861;28;20664;-60
2024/02/04 09:24:53;;;;;;;0.67;0.43;;;13.10;99.90;;;;;;5063773;28;20255;-62
2024/02/04 09:27:20;;;;;;;0.80;0.80;;;13.20;99.90;;;;;;5060593;28;20217;-61
2024/02/04 09:29:46;;;;;;;1.43;0.60;;;13.20;99.90;;;;;;5060247;28;20208;-61
2024/02/04 09:32:13;;;;;;;0.43;0.43;;;13.10;99.90;;;;;;5061747;28;20784;-61
2024/02/04 09:34:42;;;;;;;0.57;0.30;;;13.20;99.90;;;;;;5063772;28;20235;-61
2024/02/04 09:37:09;;;;;;;0.70;0.57;;;13.30;99.90;;;;;;5062429;28;20201;-61
2024/02/04 09:39:36;;;;;;;0.40;0.40;;;13.40;99.90;;;;;;5059910;28;20208;-62
2024/02/04 09:42:03;;;;;;;1.27;0.60;;;13.40;99.90;;;;;;5061846;28;20928;-61
2024/02/04 09:46:59;;;;;;;0.40;0.40;;;13.60;99.90;;;;;;5030324;28;20393;-61
2024/02/04 09:49:27;;;;;;;2.80;2.37;;;13.80;99.90;;;;;;5023344;28;20648;-61
2024/02/04 09:51:57;;;;;;;3.73;2.90;;;13.80;99.90;;;;;;5031645;28;20222;-61
2024/02/04 09:54:24;;;;;;;1.80;0.90;;;13.90;99.90;;;;;;5031368;28;20248;-66
2024/02/04 09:56:52;;;;;;;0.70;0.60;;;14.00;99.90;;;;;;5031715;28;20616;-65
2024/02/04 09:59:18;;;;;;;0.57;0.57;;;14.10;99.90;;;;;;5029416;28;20480;-65
2024/02/04 10:01:46;;;;;;;1.03;0.60;;;14.20;99.90;;;;;;5019021;28;20294;-65
2024/02/04 10:04:12;;;;;;;1.00;0.70;;;14.20;99.90;;;;;;5029587;28;20306;-68
2024/02/04 10:06:39;;;;;;;0.90;0.70;;;14.30;99.90;;;;;;5031830;28;20231;-66
2024/02/04 10:09:07;;;;;;;3.43;3.10;;;14.30;99.90;;;;;;5031205;28;20214;-65
2024/02/04 10:11:34;;;;;;;1.13;1.03;;;14.30;99.90;;;;;;5031206;28;20221;-67
2024/02/04 10:14:01;;;;;;;1.27;0.90;;;14.50;99.90;;;;;;5030453;28;20217;-68
2024/02/04 10:16:29;;;;;;;1.07;0.60;;;14.60;99.90;;;;;;5025527;28;20230;-65
2024/02/04 10:18:56;;;;;;;1.27;0.67;;;14.70;99.90;;;;;;5035290;28;20221;-64
2024/02/04 10:21:24;;;;;;;1.00;0.60;;;14.70;99.90;;;;;;5035525;28;20210;-66
2024/02/04 10:23:51;;;;;;;0.70;0.60;;;14.70;99.90;;;;;;5035680;28;20750;-66
2024/02/04 10:26:21;;;;;;;0.73;0.63;;;14.80;99.90;;;;;;5034873;28;20238;-61
2024/02/04 10:28:47;;;;;;;2.08;1.63;;;14.90;99.90;;;;;;5035174;28;20300;-60
2024/02/04 10:31:15;;;;;;;1.13;0.57;;;15.00;99.90;;;;;;5034368;28;20218;-62
2024/02/04 10:33:41;;;;;;;1.97;0.77;;;15.10;99.90;;;;;;5035100;28;20230;-62
2024/02/04 10:36:08;;;;;;;1.15;0.70;;;15.10;99.90;;;;;;5033885;28;20640;-63
2024/02/04 10:38:35;;;;;;;1.47;1.10;;;15.10;99.90;;;;;;5035125;28;20289;-62
2024/02/04 10:41:03;;;;;;;1.37;0.80;;;15.00;99.90;;;;;;5026917;28;20222;-63
2024/02/04 10:43:34;;;;;;;4.50;1.87;;;14.90;99.90;;;;;;5030973;28;20298;-62
2024/02/04 10:46:09;;;;;;;1.00;0.50;;;14.80;99.90;;;;;;5030773;28;20245;-66
2024/02/04 10:48:42;;;;;;;0.40;0.40;;;14.70;99.90;;;;;;5027965;28;20210;-64
2024/02/04 10:51:13;;;;;;;0.83;0.50;;;14.80;99.90;;;;;;5035122;28;20214;-64
2024/02/04 10:53:42;;;;;;;0.57;0.40;;;14.80;99.90;;;;;;5034873;28;20233;-64
2024/02/04 10:56:14;;;;;;;0.70;0.40;;;14.90;99.90;;;;;;5034807;28;20227;-63
2024/02/04 10:58:44;;;;;;;1.33;0.53;;;15.00;99.90;;;;;;5035033;28;20214;-64
2024/02/04 11:01:12;;;;;;;0.67;0.30;;;14.90;99.90;;;;;;5035182;28;20214;-64
2024/02/04 11:03:40;;;;;;;0.40;0.30;;;14.90;99.90;;;;;;5035018;28;20245;-65
2024/02/04 11:06:08;;;;;;;0.30;0.30;;;14.90;99.90;;;;;;5033938;28;20238;-65
2024/02/04 11:08:35;;;;;;;0.37;0.30;;;14.90;99.90;;;;;;5027991;28;20241;-65
2024/02/04 11:11:02;;;;;;;0.40;0.40;;;14.70;99.90;;;;;;5035074;28;20206;-65
2024/02/04 11:13:29;;;;;;;2.97;0.40;;;14.80;99.90;;;;;;5023409;28;20234;-62
2024/02/04 11:16:00;;;;;;;1.20;0.40;;;14.80;99.90;;;;;;5030346;28;20230;-63
2024/02/04 11:18:51;;;;;;;0.70;0.60;;;15.00;99.90;;;;;;5034123;28;20228;-64
2024/02/04 11:21:47;;;;;;;0.93;0.90;;;15.10;99.90;;;;;;5034905;28;20221;-63
2024/02/04 11:24:27;;;;;;;0.57;0.33;;;15.20;99.90;;;;;;5034430;28;20268;-61
2024/02/04 11:26:54;;;;;;;0.50;0.28;;;15.30;99.90;;;;;;5031584;28;20895;-64
2024/02/04 11:29:22;;;;;;;0.73;0.40;;;15.40;99.90;;;;;;5026929;28;20222;-63
2024/02/04 11:31:50;;;;;;;1.80;1.40;;;15.40;99.90;;;;;;5033710;28;20260;-61
2024/02/04 11:34:17;;;;;;;0.73;0.32;;;15.40;99.90;;;;;;5034252;28;20210;-62
2024/02/04 11:36:44;;;;;;;0.30;0.30;;;15.40;99.90;;;;;;5034312;28;20276;-62
2024/02/04 11:39:15;;;;;;;0.47;0.20;;;15.40;99.90;;;;;;5028053;28;20274;-61
2024/02/04 11:41:47;;;;;;;0.77;0.40;;;15.30;99.90;;;;;;5026827;28;20248;-62
2024/02/04 11:44:13;;;;;;;0.30;0.20;;;15.10;99.90;;;;;;5032959;28;20763;-59
2024/02/04 11:46:47;;;;;;;0.50;0.32;;;14.90;99.90;;;;;;5029259;28;20242;-61
2024/02/04 11:49:17;;;;;;;0.37;0.20;;;14.80;99.90;;;;;;5030986;28;20746;-61
2024/02/04 11:51:48;;;;;;;0.40;0.10;;;14.90;99.90;;;;;;5023118;28;20306;-60
2024/02/04 11:54:15;;;;;;;1.23;0.73;;;14.90;99.90;;;;;;5024004;28;20714;-61
2024/02/04 11:56:42;;;;;;;3.05;1.80;;;15.00;99.90;;;;;;5033871;28;20629;-63
2024/02/04 11:59:10;;;;;;;9.13;7.83;;;14.90;99.90;;;;;;5032653;28;20217;-63
2024/02/04 12:01:37;;;;;;;1.23;1.10;;;14.80;99.90;;;;;;5014348;28;20746;-61
2024/02/04 12:04:11;;;;;;;2.63;1.97;;;14.80;99.90;;;;;;5030850;28;20212;-60
2024/02/04 12:06:40;;;;;;;1.73;1.20;;;14.80;99.90;;;;;;5027241;28;20312;-60
2024/02/04 12:09:07;;;;;;;1.30;0.47;;;14.90;99.90;;;;;;5033820;28;20202;-60
2024/02/04 12:11:36;;;;;;;0.63;0.57;;;15.10;99.90;;;;;;5034154;28;20224;-60
2024/02/04 12:14:05;;;;;;;0.23;0.20;;;15.30;99.90;;;;;;5033911;28;20230;-60
2024/02/04 12:16:32;;;;;;;3.63;2.20;;;15.50;99.90;;;;;;5026462;28;20248;-59
2024/02/04 12:18:59;;;;;;;0.93;0.40;;;15.60;99.90;;;;;;5033205;28;20210;-60
2024/02/04 12:21:26;;;;;;;0.52;0.30;;;15.70;99.90;;;;;;5033632;28;20207;-59
2024/02/04 12:23:55;;;;;;;0.68;0.50;;;15.80;99.90;;;;;;5033618;28;20664;-60
2024/02/04 12:26:22;;;;;;;0.38;0.30;;;16.00;99.90;;;;;;5033444;28;20221;-60
2024/02/04 12:28:50;;;;;;;0.15;0.15;;;16.20;99.90;;;;;;5033894;28;20260;-61
2024/02/04 12:31:18;;;;;;;0.22;0.20;;;16.40;99.90;;;;;;5033606;28;20217;-60
2024/02/04 12:33:53;;;;;;;0.30;0.28;;;16.50;99.90;;;;;;5033433;28;20264;-62
2024/02/04 12:36:19;;;;;;;0.80;0.50;;;16.40;99.90;;;;;;5023285;28;20233;-60
2024/02/04 12:38:51;;;;;;;0.85;0.80;;;16.30;99.90;;;;;;5032485;28;20210;-62
2024/02/04 12:41:19;;;;;;;0.68;0.50;;;16.30;99.90;;;;;;5032871;28;20210;-65
2024/02/04 12:43:51;;;;;;;9.15;7.82;;;16.30;99.90;;;;;;5027117;28;20211;-59
2024/02/04 12:46:17;;;;;;;0.27;0.20;;;16.30;99.90;;;;;;5022935;28;20226;-59
2024/02/04 12:48:44;;;;;;;3.30;2.55;;;16.20;99.90;;;;;;5032902;28;20256;-59
2024/02/04 12:51:11;;;;;;;2.75;1.73;;;16.00;99.90;;;;;;5032963;28;20206;-60
2024/02/04 12:53:38;;;;;;;2.87;1.07;;;15.90;99.90;;;;;;5033052;28;20254;-59